Bowman, South Carolina
Current Conditions -  °F | °C
As of 12:53 PM on Monday 26 Jan 2015 (Local Time) from KOGB Reporting Station
Overcast Overcast  
Wind Chill: 57°   Ceiling: 5000
Heat Index: 57°   Visibility: 10mi
Dew Point: 38°   Wind: 15mph
Humidity: 49%   Direction: 290°WNW
Pressure: 29.65"   Gusts: NA
Location:  33.35°N, 80.68°W
Report Text: KOGB 261753Z AUTO 29013KT 10SM SCT042 BKN050 OVC060 14/03 A2965 RMK AO2 PK WND 30027/1722 SLP040 T01390033 10144 20033 58012
Loading
Personal Weather Stations






























Interactive Weather Map New forecast layout! Learn more

10-Day Weather Forecast

Advertisements
Track Severe Weather on mobile